Lincoln Heights, Ohio
Current Conditions -  °F | °C
As of 1:53 AM on Tuesday 21 Oct 2014 (Local Time) from KHAO Reporting Station
Broken Clouds Broken Clouds  
Wind Chill: 54°   Ceiling: 6000
Heat Index: 54°   Visibility: 10mi
Dew Point: 51°   Wind: 6mph
Humidity: 90%   Direction: 300°WNW
Pressure: 29.93"   Gusts: NA
Location:  39.236°N, 84.4599°W
Report Text: KHAO 210553Z AUTO 30005KT 10SM SCT049 BKN060 BKN080 12/11 A2993 RMK AO2 RAE0457 SLP133 P0000 60001 T01220106 10144 20100 52006
Loading
Personal Weather Stations






























Interactive Weather Map
Tropical Storm Tracking
New forecast layout! Learn more

10-Day Weather Forecast

Advertisements
Track Severe Weather on mobile